Time;durP1;ratioP1;P1;durP2;ratioP2;P2;SDS_P1;SDS_P2;PMS_P1;PMS_P2;Temp;Humidity;BMP_temperature;BMP_pressure;BME280_temperature;BME280_humidity;BME280_pressure;Samples;Min_cycle;Max_cycle;Signal;HPM_P1;HPM_P2
2022/07/26 00:00:18;;;;;;;;;;;26.70;49.20;;;;;;5004003;28;86944;-36
2022/07/26 00:02:44;;;;;;;;;;;26.70;49.20;;;;;;5003234;28;89657;-36
2022/07/26 00:05:10;;;;;;;;;;;26.60;49.20;;;;;;5004445;28;86437;-36
2022/07/26 00:07:35;;;;;;;;;;;26.60;49.20;;;;;;5006203;28;87176;-36
2022/07/26 00:10:01;;;;;;;;;;;26.60;49.30;;;;;;5003727;28;87144;-36
2022/07/26 00:12:27;;;;;;;;;;;26.60;49.20;;;;;;5003144;28;87929;-36
2022/07/26 00:14:52;;;;;;;;;;;26.60;49.20;;;;;;5003157;28;87908;-36
2022/07/26 00:17:17;;;;;;;;;;;26.50;49.20;;;;;;5003495;28;86954;-36
2022/07/26 00:19:43;;;;;;;;;;;26.50;49.20;;;;;;5003901;28;86975;-36
2022/07/26 00:24:53;;;;;;;;;;;26.50;49.20;;;;;;5001221;28;87016;-36
2022/07/26 00:27:18;;;;;;;;;;;26.50;49.30;;;;;;5003643;28;87423;-36
2022/07/26 00:29:43;;;;;;;;;;;26.40;49.20;;;;;;5006466;28;87494;-36
2022/07/26 00:32:09;;;;;;;;;;;26.40;49.30;;;;;;5003556;28;87068;-36
2022/07/26 00:34:34;;;;;;;;;;;26.50;49.30;;;;;;5003027;28;88184;-36
2022/07/26 00:37:00;;;;;;;;;;;26.40;49.30;;;;;;5002262;28;87958;-36
2022/07/26 00:39:27;;;;;;;;;;;26.40;49.30;;;;;;5003174;28;88004;-36
2022/07/26 00:41:53;;;;;;;;;;;26.40;49.30;;;;;;5002689;28;89544;-36
2022/07/26 00:44:18;;;;;;;;;;;26.40;49.40;;;;;;5002348;28;87181;-36
2022/07/26 00:46:44;;;;;;;;;;;26.40;49.40;;;;;;5002818;28;87221;-36
2022/07/26 00:49:10;;;;;;;;;;;26.30;49.30;;;;;;5002780;28;88111;-36
2022/07/26 00:51:35;;;;;;;;;;;26.30;49.30;;;;;;5005871;28;87266;-36
2022/07/26 00:54:01;;;;;;;;;;;26.30;49.60;;;;;;5003318;28;87209;-36
2022/07/26 00:56:28;;;;;;;;;;;26.30;49.40;;;;;;5002948;28;87107;-36
2022/07/26 00:58:53;;;;;;;;;;;26.20;49.40;;;;;;5003038;28;87492;-36
2022/07/26 01:01:19;;;;;;;;;;;26.30;49.40;;;;;;5002128;28;88295;-36
2022/07/26 01:03:44;;;;;;;;;;;26.20;49.30;;;;;;5003065;28;87027;-36
2022/07/26 01:06:10;;;;;;;;;;;26.20;49.30;;;;;;5002825;28;87514;-36
2022/07/26 01:08:36;;;;;;;;;;;26.20;49.40;;;;;;5002216;28;89502;-36
2022/07/26 01:11:01;;;;;;;;;;;26.20;49.40;;;;;;5002968;28;87130;-36
2022/07/26 01:13:27;;;;;;;;;;;26.20;49.40;;;;;;5005276;28;88012;-36
2022/07/26 01:15:52;;;;;;;;;;;26.10;49.40;;;;;;5002446;28;87169;-36
2022/07/26 01:18:18;;;;;;;;;;;26.20;49.40;;;;;;5003383;28;87193;-36
2022/07/26 01:20:43;;;;;;;;;;;26.10;49.30;;;;;;5002403;28;88060;-36
2022/07/26 01:23:09;;;;;;;;;;;26.10;49.40;;;;;;5002641;28;87153;-36
2022/07/26 01:25:38;;;;;;;;;;;26.10;49.40;;;;;;5002057;28;87971;-36
2022/07/26 01:28:03;;;;;;;;;;;26.00;49.40;;;;;;5002203;28;89694;-36
2022/07/26 01:30:29;;;;;;;;;;;26.10;49.50;;;;;;5002557;28;87073;-36
2022/07/26 01:32:55;;;;;;;;;;;26.00;49.40;;;;;;5005282;28;87513;-36
2022/07/26 01:35:21;;;;;;;;;;;26.00;49.40;;;;;;5002558;28;87010;-36
2022/07/26 01:37:46;;;;;;;;;;;26.00;49.40;;;;;;5002365;28;87431;-36
2022/07/26 01:40:13;;;;;;;;;;;26.00;49.40;;;;;;5002114;28;88122;-36
2022/07/26 01:42:39;;;;;;;;;;;26.00;49.50;;;;;;5003091;28;86409;-36
2022/07/26 01:45:06;;;;;;;;;;;25.90;49.40;;;;;;5002170;28;88249;-36
2022/07/26 01:47:31;;;;;;;;;;;25.90;49.40;;;;;;5002044;28;88002;-36
2022/07/26 01:49:57;;;;;;;;;;;25.90;49.50;;;;;;5001745;28;88116;-36
2022/07/26 01:52:22;;;;;;;;;;;25.90;49.50;;;;;;5002368;28;88469;-36
2022/07/26 01:54:48;;;;;;;;;;;25.90;49.50;;;;;;5005819;28;88049;-36
2022/07/26 01:57:13;;;;;;;;;;;25.90;49.60;;;;;;5005928;28;87659;-36
2022/07/26 01:59:39;;;;;;;;;;;25.80;49.50;;;;;;5005572;28;88004;-36
2022/07/26 02:02:04;;;;;;;;;;;25.80;49.40;;;;;;5005779;28;87021;-36
2022/07/26 02:07:13;;;;;;;;;;;25.80;49.40;;;;;;5005926;28;86706;-36
2022/07/26 02:09:39;;;;;;;;;;;25.70;49.50;;;;;;5005596;28;86969;-36
2022/07/26 02:12:05;;;;;;;;;;;25.70;49.50;;;;;;5005795;28;87917;-36
2022/07/26 02:14:30;;;;;;;;;;;25.70;49.50;;;;;;5004322;28;89059;-36
2022/07/26 02:16:58;;;;;;;;;;;25.70;49.50;;;;;;5008516;28;87162;-36
2022/07/26 02:19:27;;;;;;;;;;;25.70;49.50;;;;;;5004848;28;88440;-36
2022/07/26 02:21:53;;;;;;;;;;;25.60;49.50;;;;;;5005576;28;87134;-36
2022/07/26 02:24:18;;;;;;;;;;;25.60;49.50;;;;;;5005580;28;87617;-36
2022/07/26 02:26:44;;;;;;;;;;;25.70;49.60;;;;;;5005015;28;87205;-36
2022/07/26 02:29:09;;;;;;;;;;;25.60;49.50;;;;;;5005365;28;87224;-36
2022/07/26 02:31:35;;;;;;;;;;;25.50;49.50;;;;;;5005915;28;87259;-36
2022/07/26 02:34:00;;;;;;;;;;;25.60;49.60;;;;;;5004564;28;88103;-36
2022/07/26 02:36:26;;;;;;;;;;;25.50;49.50;;;;;;5005315;28;87153;-36
2022/07/26 02:38:51;;;;;;;;;;;25.50;49.50;;;;;;5007293;28;88071;-36
2022/07/26 02:41:17;;;;;;;;;;;25.50;49.60;;;;;;5005393;28;87131;-36
2022/07/26 02:43:43;;;;;;;;;;;25.50;49.60;;;;;;5004883;28;88664;-36
2022/07/26 02:46:09;;;;;;;;;;;25.50;49.60;;;;;;5004188;28;88045;-36
2022/07/26 02:48:35;;;;;;;;;;;25.50;49.60;;;;;;5004946;28;87184;-36
2022/07/26 02:51:00;;;;;;;;;;;25.50;49.60;;;;;;5005126;28;87486;-36
2022/07/26 02:53:26;;;;;;;;;;;25.40;49.50;;;;;;5004724;28;88082;-36
2022/07/26 02:55:51;;;;;;;;;;;25.40;49.60;;;;;;5005597;28;86456;-36
2022/07/26 02:58:18;;;;;;;;;;;25.40;49.70;;;;;;5005017;28;87029;-36
2022/07/26 03:00:44;;;;;;;;;;;25.30;49.60;;;;;;5007010;28;89359;-36
2022/07/26 03:03:12;;;;;;;;;;;25.30;49.60;;;;;;5004134;28;87892;-36
2022/07/26 03:05:38;;;;;;;;;;;25.30;49.60;;;;;;5004264;28;88440;-36
2022/07/26 03:08:04;;;;;;;;;;;25.30;49.70;;;;;;5003787;28;87234;-36
2022/07/26 03:10:29;;;;;;;;;;;25.30;49.70;;;;;;5004869;28;87299;-36
2022/07/26 03:12:55;;;;;;;;;;;25.30;49.70;;;;;;5004351;28;88143;-36
2022/07/26 03:15:20;;;;;;;;;;;25.20;49.60;;;;;;5004359;28;87169;-36
2022/07/26 03:17:46;;;;;;;;;;;25.30;49.70;;;;;;5004244;28;89054;-36
2022/07/26 03:20:11;;;;;;;;;;;25.20;49.70;;;;;;5004497;28;88683;-36
2022/07/26 03:22:37;;;;;;;;;;;25.20;49.70;;;;;;5007583;28;86897;-36
2022/07/26 03:25:03;;;;;;;;;;;25.20;49.70;;;;;;5004089;28;88097;-36
2022/07/26 03:27:28;;;;;;;;;;;25.20;49.80;;;;;;5003876;28;88079;-36
2022/07/26 03:29:54;;;;;;;;;;;25.20;49.80;;;;;;5004528;28;88335;-36
2022/07/26 03:32:19;;;;;;;;;;;25.10;49.70;;;;;;5004102;28;88034;-36
2022/07/26 03:34:45;;;;;;;;;;;25.10;49.90;;;;;;5004268;28;87194;-36
2022/07/26 03:37:10;;;;;;;;;;;25.10;49.80;;;;;;5004315;28;87100;-36
2022/07/26 03:39:37;;;;;;;;;;;25.10;49.90;;;;;;5003785;28;87604;-36
2022/07/26 03:42:03;;;;;;;;;;;25.10;49.80;;;;;;5007236;28;87026;-36
2022/07/26 03:44:28;;;;;;;;;;;25.10;49.90;;;;;;5004335;28;87590;-36
2022/07/26 03:46:54;;;;;;;;;;;25.00;49.90;;;;;;5003823;28;87453;-36
2022/07/26 03:49:20;;;;;;;;;;;25.00;49.80;;;;;;5003933;28;87062;-36
2022/07/26 03:51:45;;;;;;;;;;;25.00;49.90;;;;;;5002946;28;90425;-36
2022/07/26 03:54:11;;;;;;;;;;;25.00;49.90;;;;;;5004075;28;87108;-36
2022/07/26 03:56:37;;;;;;;;;;;25.00;50.00;;;;;;5004018;28;87396;-36
2022/07/26 03:59:04;;;;;;;;;;;25.00;50.00;;;;;;5003634;28;87555;-36
2022/07/26 04:01:30;;;;;;;;;;;24.90;50.00;;;;;;5003751;28;87117;-36
2022/07/26 04:03:55;;;;;;;;;;;24.90;49.90;;;;;;5006369;28;87899;-36
2022/07/26 04:06:21;;;;;;;;;;;24.90;49.90;;;;;;5003928;28;87068;-36
2022/07/26 04:08:46;;;;;;;;;;;24.90;49.90;;;;;;5004491;28;87719;-36
2022/07/26 04:11:12;;;;;;;;;;;24.90;50.00;;;;;;5003424;28;88047;-36
2022/07/26 04:13:37;;;;;;;;;;;24.90;50.00;;;;;;5003589;28;87107;-36
2022/07/26 04:16:03;;;;;;;;;;;24.80;50.00;;;;;;5002904;28;87955;-36
2022/07/26 04:18:29;;;;;;;;;;;24.80;50.00;;;;;;5001777;28;88138;-36
2022/07/26 04:20:54;;;;;;;;;;;24.80;50.00;;;;;;5003610;28;87005;-36
2022/07/26 04:23:19;;;;;;;;;;;24.80;50.00;;;;;;5003674;28;87866;-36
2022/07/26 04:25:45;;;;;;;;;;;24.80;50.00;;;;;;5006042;28;88059;-36
2022/07/26 04:28:11;;;;;;;;;;;24.80;50.10;;;;;;5003486;28;87581;-36
2022/07/26 04:30:37;;;;;;;;;;;24.80;50.10;;;;;;5003211;28;88021;-36
2022/07/26 04:33:03;;;;;;;;;;;24.80;50.10;;;;;;5003610;28;86325;-36
2022/07/26 04:35:28;;;;;;;;;;;24.70;50.10;;;;;;5003689;28;87017;-36
2022/07/26 04:37:54;;;;;;;;;;;24.70;50.20;;;;;;5002829;28;88764;-36
2022/07/26 04:40:20;;;;;;;;;;;24.70;50.20;;;;;;5002724;28;88087;-36
2022/07/26 04:42:46;;;;;;;;;;;24.70;50.20;;;;;;5003214;28;88286;-36
2022/07/26 04:45:12;;;;;;;;;;;24.70;50.20;;;;;;5003003;28;88090;-36
2022/07/26 04:47:41;;;;;;;;;;;24.70;50.20;;;;;;5005950;28;86952;-36
2022/07/26 04:50:07;;;;;;;;;;;24.60;50.20;;;;;;5002775;28;87144;-36
2022/07/26 04:52:33;;;;;;;;;;;24.70;50.30;;;;;;5003330;28;87140;-36
2022/07/26 04:54:58;;;;;;;;;;;24.60;50.30;;;;;;5003179;28;87452;-36
2022/07/26 04:57:24;;;;;;;;;;;24.60;50.30;;;;;;5003200;28;87311;-36
2022/07/26 04:59:49;;;;;;;;;;;24.60;50.30;;;;;;5003169;28;87054;-35
2022/07/26 05:02:15;;;;;;;;;;;24.60;50.30;;;;;;5003025;28;87490;-36
2022/07/26 05:04:41;;;;;;;;;;;24.60;50.30;;;;;;5001664;28;88995;-36
2022/07/26 05:07:07;;;;;;;;;;;24.60;50.30;;;;;;5002790;28;87232;-36
2022/07/26 05:09:33;;;;;;;;;;;24.60;50.40;;;;;;5005409;28;87495;-36
2022/07/26 05:11:59;;;;;;;;;;;24.60;50.50;;;;;;5003005;28;86866;-36
2022/07/26 05:14:24;;;;;;;;;;;24.60;50.50;;;;;;5002412;28;87713;-36
2022/07/26 05:16:50;;;;;;;;;;;24.60;50.50;;;;;;5002377;28;88562;-36
2022/07/26 05:19:15;;;;;;;;;;;24.60;50.50;;;;;;5002632;28;87146;-36
2022/07/26 05:21:41;;;;;;;;;;;24.60;50.50;;;;;;5003249;28;87476;-36
2022/07/26 05:24:06;;;;;;;;;;;24.50;50.40;;;;;;5002251;28;88132;-36
2022/07/26 05:26:32;;;;;;;;;;;24.60;50.60;;;;;;5002727;28;87165;-36
2022/07/26 05:28:57;;;;;;;;;;;24.50;50.50;;;;;;5001860;28;87898;-36
2022/07/26 05:31:23;;;;;;;;;;;24.50;50.60;;;;;;5004870;28;88018;-36
2022/07/26 05:33:49;;;;;;;;;;;24.50;50.60;;;;;;5002356;28;87422;-36
2022/07/26 05:36:15;;;;;;;;;;;24.50;50.70;;;;;;5002195;28;87105;-36
2022/07/26 05:38:40;;;;;;;;;;;24.50;50.80;;;;;;5002298;28;87600;-36
2022/07/26 05:41:06;;;;;;;;;;;24.50;50.80;;;;;;5002656;28;87547;-36
2022/07/26 05:43:31;;;;;;;;;;;24.50;50.80;;;;;;5002007;28;89022;-36
2022/07/26 05:45:57;;;;;;;;;;;24.50;50.90;;;;;;5002625;28;86412;-36
2022/07/26 05:48:23;;;;;;;;;;;24.50;50.80;;;;;;5002401;28;86951;-36
2022/07/26 05:50:48;;;;;;;;;;;24.50;50.90;;;;;;5004976;28;87042;-36
2022/07/26 05:53:14;;;;;;;;;;;24.50;50.90;;;;;;5001667;28;88891;-36
2022/07/26 05:55:39;;;;;;;;;;;24.50;50.90;;;;;;5002034;28;87270;-36
2022/07/26 05:58:05;;;;;;;;;;;24.50;51.00;;;;;;5002349;28;87188;-36
2022/07/26 06:00:30;;;;;;;;;;;24.50;51.00;;;;;;5002202;28;87207;-36
2022/07/26 06:02:56;;;;;;;;;;;24.50;51.00;;;;;;5001940;28;87822;-36
2022/07/26 06:05:21;;;;;;;;;;;24.50;51.10;;;;;;5002193;28;87257;-36
2022/07/26 06:07:47;;;;;;;;;;;24.50;51.00;;;;;;5002351;28;87391;-36
2022/07/26 06:10:12;;;;;;;;;;;24.50;51.10;;;;;;5002320;28;86510;-36
2022/07/26 06:12:38;;;;;;;;;;;24.50;51.20;;;;;;5005001;28;87083;-36
2022/07/26 06:15:04;;;;;;;;;;;24.50;51.20;;;;;;5001849;28;88234;-36
2022/07/26 06:17:29;;;;;;;;;;;24.50;51.10;;;;;;5001064;28;87979;-36
2022/07/26 06:19:55;;;;;;;;;;;24.50;51.20;;;;;;5001574;28;90177;-36
2022/07/26 06:22:21;;;;;;;;;;;24.50;51.10;;;;;;5001599;28;88116;-36
2022/07/26 06:24:46;;;;;;;;;;;24.50;51.20;;;;;;5002160;28;87683;-36
2022/07/26 06:27:12;;;;;;;;;;;24.50;51.30;;;;;;5001920;28;87481;-36
2022/07/26 06:29:37;;;;;;;;;;;24.50;51.30;;;;;;5001641;28;88074;-36
2022/07/26 06:32:03;;;;;;;;;;;24.50;51.30;;;;;;5001687;28;87174;-36
2022/07/26 06:34:29;;;;;;;;;;;24.50;51.30;;;;;;5004835;28;87319;-36
2022/07/26 06:36:54;;;;;;;;;;;24.50;51.30;;;;;;5001671;28;87165;-36
2022/07/26 06:39:20;;;;;;;;;;;24.50;51.30;;;;;;5002001;28;87449;-36
2022/07/26 06:41:45;;;;;;;;;;;24.50;51.30;;;;;;5001544;28;89003;-36
2022/07/26 06:44:11;;;;;;;;;;;24.50;51.40;;;;;;5005204;28;87241;-35
2022/07/26 06:46:36;;;;;;;;;;;24.50;51.40;;;;;;5005151;28;87348;-36
2022/07/26 06:49:02;;;;;;;;;;;24.50;51.40;;;;;;5004522;28;88256;-36
2022/07/26 06:51:28;;;;;;;;;;;24.50;51.40;;;;;;5005096;28;86946;-36
2022/07/26 06:53:53;;;;;;;;;;;24.50;51.50;;;;;;5005245;28;88203;-36
2022/07/26 06:56:19;;;;;;;;;;;24.50;51.50;;;;;;5007513;28;88392;-36
2022/07/26 06:58:45;;;;;;;;;;;24.50;51.50;;;;;;5005088;28;87736;-35
2022/07/26 07:01:10;;;;;;;;;;;24.50;51.50;;;;;;5004455;28;88131;-36
2022/07/26 07:03:36;;;;;;;;;;;24.50;51.60;;;;;;5004867;28;87353;-36
2022/07/26 07:06:01;;;;;;;;;;;24.50;51.60;;;;;;5004193;28;87963;-36
2022/07/26 07:08:27;;;;;;;;;;;24.50;51.60;;;;;;5004445;28;88055;-36
2022/07/26 07:10:54;;;;;;;;;;;24.50;51.60;;;;;;5004471;28;87137;-36
2022/07/26 07:13:20;;;;;;;;;;;24.50;51.60;;;;;;5004525;28;88879;-36
2022/07/26 07:15:46;;;;;;;;;;;24.50;52.30;;;;;;5003776;28;89531;-36
2022/07/26 07:18:11;;;;;;;;;;;24.50;51.70;;;;;;5007473;28;87093;-36
2022/07/26 07:20:38;;;;;;;;;;;24.50;51.80;;;;;;5004375;28;87109;-36
2022/07/26 07:23:04;;;;;;;;;;;24.50;51.70;;;;;;5004787;28;86391;-36
2022/07/26 07:25:29;;;;;;;;;;;24.50;51.70;;;;;;5004528;28;87124;-36
2022/07/26 07:27:55;;;;;;;;;;;24.50;51.80;;;;;;5004130;28;88122;-36
2022/07/26 07:30:20;;;;;;;;;;;24.50;51.70;;;;;;5003532;28;88101;-35
2022/07/26 07:32:46;;;;;;;;;;;24.50;51.90;;;;;;5004685;28;88464;-36
2022/07/26 07:35:11;;;;;;;;;;;24.50;51.90;;;;;;5003636;28;87228;-36
2022/07/26 07:37:37;;;;;;;;;;;24.50;51.80;;;;;;5004111;28;87024;-36
2022/07/26 07:40:06;;;;;;;;;;;24.50;51.80;;;;;;5006938;28;87744;-36
2022/07/26 07:42:32;;;;;;;;;;;24.50;51.80;;;;;;5004160;28;87102;-36
2022/07/26 07:44:57;;;;;;;;;;;24.50;51.90;;;;;;5004249;28;87376;-36
2022/07/26 07:47:23;;;;;;;;;;;24.50;51.90;;;;;;5003797;28;87297;-36
2022/07/26 07:49:48;;;;;;;;;;;24.50;51.80;;;;;;5003972;28;87180;-36
2022/07/26 07:52:14;;;;;;;;;;;24.50;51.90;;;;;;5003827;28;87480;-36
2022/07/26 07:54:39;;;;;;;;;;;24.50;52.00;;;;;;5003157;28;88903;-35
2022/07/26 07:57:05;;;;;;;;;;;24.50;51.90;;;;;;5003694;28;87030;-36
2022/07/26 07:59:30;;;;;;;;;;;24.50;51.90;;;;;;5006503;28;87513;-35
2022/07/26 08:01:56;;;;;;;;;;;24.50;51.90;;;;;;5004050;28;87092;-35
2022/07/26 08:04:21;;;;;;;;;;;24.60;51.90;;;;;;5003825;28;87332;-36
2022/07/26 08:06:47;;;;;;;;;;;24.50;51.90;;;;;;5003744;28;87822;-36
2022/07/26 08:09:12;;;;;;;;;;;24.50;51.80;;;;;;5003835;28;87177;-36
2022/07/26 08:11:38;;;;;;;;;;;24.50;51.90;;;;;;5004447;28;87434;-36
2022/07/26 08:14:03;;;;;;;;;;;24.60;52.00;;;;;;5003601;28;87281;-36
2022/07/26 08:16:29;;;;;;;;;;;24.60;51.90;;;;;;5003111;28;87114;-36
2022/07/26 08:18:55;;;;;;;;;;;24.60;51.80;;;;;;5003103;28;88010;-36
2022/07/26 08:21:20;;;;;;;;;;;24.60;51.80;;;;;;5005996;28;89137;-36
2022/07/26 08:23:46;;;;;;;;;;;24.60;51.80;;;;;;5003493;28;87817;-35
2022/07/26 08:26:11;;;;;;;;;;;24.60;51.90;;;;;;5003397;28;88071;-36
2022/07/26 08:28:38;;;;;;;;;;;24.60;51.90;;;;;;5003653;28;87337;-36
2022/07/26 08:31:04;;;;;;;;;;;24.60;51.90;;;;;;5003532;28;87451;-36
2022/07/26 08:33:29;;;;;;;;;;;24.60;52.00;;;;;;5003234;28;87355;-36
2022/07/26 08:35:55;;;;;;;;;;;24.60;51.80;;;;;;5003696;28;86415;-36
2022/07/26 08:38:20;;;;;;;;;;;24.60;52.00;;;;;;5003391;28;86970;-36
2022/07/26 08:40:46;;;;;;;;;;;24.60;51.80;;;;;;5002830;28;89803;-36
2022/07/26 08:43:12;;;;;;;;;;;24.60;52.40;;;;;;5005837;28;88041;-36
2022/07/26 08:45:37;;;;;;;;;;;24.60;51.70;;;;;;5002636;28;87997;-36
2022/07/26 08:48:03;;;;;;;;;;;24.60;51.70;;;;;;5003335;28;87042;-36
2022/07/26 08:50:29;;;;;;;;;;;24.70;51.80;;;;;;5003067;28;88581;-36
2022/07/26 08:52:58;;;;;;;;;;;24.70;51.70;;;;;;5003000;28;88119;-36
2022/07/26 08:55:24;;;;;;;;;;;24.70;51.70;;;;;;5003193;28;87133;-36
2022/07/26 08:57:49;;;;;;;;;;;24.70;51.70;;;;;;5002983;28;87852;-36
2022/07/26 09:00:23;;;;;;;;;;;24.70;51.60;;;;;;5003392;28;87552;-36
2022/07/26 09:02:49;;;;;;;;;;;24.70;51.60;;;;;;5002825;28;87111;-36
2022/07/26 09:05:17;;;;;;;;;;;24.70;51.60;;;;;;5004912;28;87390;-36
2022/07/26 09:07:44;;;;;;;;;;;24.70;51.50;;;;;;5002273;28;87876;-36
2022/07/26 09:10:10;;;;;;;;;;;24.80;51.60;;;;;;5002570;28;89773;-36
2022/07/26 09:12:36;;;;;;;;;;;24.70;51.50;;;;;;5002554;28;88056;-36
2022/07/26 09:15:03;;;;;;;;;;;24.80;51.50;;;;;;5002507;28;87130;-35
2022/07/26 09:17:39;;;;;;;;;;;24.80;51.60;;;;;;5002358;28;89856;-36
2022/07/26 09:20:09;;;;;;;;;;;24.80;51.50;;;;;;5002480;28;87909;-36
2022/07/26 09:22:36;;;;;;;;;;;24.80;51.50;;;;;;5002709;28;87109;-36
2022/07/26 09:25:02;;;;;;;;;;;24.80;51.50;;;;;;5003178;28;86536;-36
2022/07/26 09:27:35;;;;;;;;;;;24.80;51.50;;;;;;5005250;28;88107;-35
2022/07/26 09:30:05;;;;;;;;;;;24.80;51.50;;;;;;5002136;28;88905;-36
2022/07/26 09:32:31;;;;;;;;;;;24.90;51.50;;;;;;5001712;28;88167;-35
2022/07/26 09:35:15;;;;;;;;;;;24.90;51.50;;;;;;5002597;28;87225;-36
2022/07/26 09:37:45;;;;;;;;;;;24.90;51.50;;;;;;5002334;28;89113;-35
2022/07/26 09:40:15;;;;;;;;;;;24.90;51.60;;;;;;5001958;28;89276;-35
2022/07/26 09:42:57;;;;;;;;;;;24.90;51.50;;;;;;5002465;28;87047;-36
2022/07/26 09:45:23;;;;;;;;;;;24.90;51.60;;;;;;5002204;28;87358;-36
2022/07/26 09:47:49;;;;;;;;;;;25.00;51.60;;;;;;5002078;28;89642;-36
2022/07/26 09:50:18;;;;;;;;;;;25.00;51.60;;;;;;5005955;28;86597;-36
2022/07/26 09:52:56;;;;;;;;;;;24.90;51.50;;;;;;5001995;28;88087;-35
2022/07/26 09:55:22;;;;;;;;;;;25.00;51.50;;;;;;5002380;28;87062;-36
2022/07/26 09:57:49;;;;;;;;;;;25.00;51.50;;;;;;5001641;28;87991;-35
2022/07/26 10:00:15;;;;;;;;;;;25.00;51.50;;;;;;5001800;28;88109;-36
2022/07/26 10:02:40;;;;;;;;;;;25.00;51.50;;;;;;5002320;28;86771;-36
2022/07/26 10:05:06;;;;;;;;;;;25.10;51.60;;;;;;5002156;28;87421;-36
2022/07/26 10:07:31;;;;;;;;;;;25.10;51.50;;;;;;5001786;28;87943;-35
2022/07/26 10:09:59;;;;;;;;;;;25.10;51.60;;;;;;5005025;28;87075;-36
2022/07/26 10:12:27;;;;;;;;;;;25.10;51.50;;;;;;5001511;28;89378;-36
2022/07/26 10:14:54;;;;;;;;;;;25.10;51.50;;;;;;5002145;28;86373;-36
2022/07/26 10:17:28;;;;;;;;;;;25.20;51.60;;;;;;5005118;28;88206;-35
2022/07/26 10:20:04;;;;;;;;;;;25.20;51.50;;;;;;5005430;28;87185;-36
2022/07/26 10:22:31;;;;;;;;;;;25.20;51.50;;;;;;5004796;28;88003;-36
2022/07/26 10:25:16;;;;;;;;;;;25.20;51.50;;;;;;5005534;28;88360;-36
2022/07/26 10:27:52;;;;;;;;;;;25.20;51.50;;;;;;5004889;28;87596;-35
2022/07/26 10:30:17;;;;;;;;;;;25.20;51.50;;;;;;5005500;28;87145;-36
2022/07/26 10:32:43;;;;;;;;;;;25.30;51.50;;;;;;5007624;28;87349;-36
2022/07/26 10:35:27;;;;;;;;;;;25.30;51.50;;;;;;5005315;28;87129;-36
2022/07/26 10:37:56;;;;;;;;;;;25.30;51.40;;;;;;5005269;28;87403;-36
2022/07/26 10:40:24;;;;;;;;;;;25.30;51.40;;;;;;5005547;28;87243;-35
2022/07/26 10:42:49;;;;;;;;;;;25.40;51.40;;;;;;5005142;28;86919;-36
2022/07/26 10:45:16;;;;;;;;;;;25.40;51.40;;;;;;5004976;28;87221;-36
2022/07/26 10:48:01;;;;;;;;;;;25.40;51.40;;;;;;5003647;28;90676;-36
2022/07/26 10:50:36;;;;;;;;;;;25.40;51.40;;;;;;5004737;28;87012;-36
2022/07/26 10:53:02;;;;;;;;;;;25.40;51.40;;;;;;5004977;28;87949;-36
2022/07/26 10:55:28;;;;;;;;;;;25.40;51.40;;;;;;5007421;28;88041;-36
2022/07/26 10:57:53;;;;;;;;;;;25.40;51.40;;;;;;5004884;28;87472;-36
2022/07/26 11:00:23;;;;;;;;;;;25.50;51.40;;;;;;5004651;28;88043;-35
2022/07/26 11:02:53;;;;;;;;;;;25.50;51.40;;;;;;5004925;28;87301;-35
2022/07/26 11:05:19;;;;;;;;;;;25.50;51.40;;;;;;5005150;28;86427;-36
2022/07/26 11:08:00;;;;;;;;;;;25.50;52.00;;;;;;5004515;28;89338;-36
2022/07/26 11:10:25;;;;;;;;;;;25.50;51.40;;;;;;5004349;28;87098;-36
2022/07/26 11:13:01;;;;;;;;;;;25.50;51.40;;;;;;5004129;28;88840;-36
2022/07/26 11:15:27;;;;;;;;;;;25.60;51.40;;;;;;5004213;28;88202;-36
2022/07/26 11:18:04;;;;;;;;;;;25.60;51.40;;;;;;5007684;28;87522;-36
2022/07/26 11:20:29;;;;;;;;;;;25.60;51.30;;;;;;5004377;28;88042;-35
2022/07/26 11:22:55;;;;;;;;;;;25.70;51.30;;;;;;5004547;28;87152;-36
2022/07/26 11:25:21;;;;;;;;;;;25.70;51.30;;;;;;5004664;28;87473;-36
2022/07/26 11:27:58;;;;;;;;;;;25.70;51.20;;;;;;5003539;28;88002;-35
2022/07/26 11:30:23;;;;;;;;;;;25.70;51.20;;;;;;5005113;28;86374;-35
2022/07/26 11:32:53;;;;;;;;;;;25.80;52.00;;;;;;5004707;28;87008;-36
2022/07/26 11:35:18;;;;;;;;;;;25.80;51.20;;;;;;5003750;28;89410;-36
2022/07/26 11:37:54;;;;;;;;;;;25.80;51.10;;;;;;5003653;28;88091;-36
2022/07/26 11:40:39;;;;;;;;;;;25.90;51.00;;;;;;5006804;28;88341;-36
2022/07/26 11:43:05;;;;;;;;;;;25.90;51.00;;;;;;5003988;28;87045;-36
2022/07/26 11:45:30;;;;;;;;;;;25.90;51.00;;;;;;5002144;28;90710;-36
2022/07/26 11:47:57;;;;;;;;;;;25.90;51.00;;;;;;5003993;28;88167;-36
2022/07/26 11:50:22;;;;;;;;;;;25.90;51.00;;;;;;5004350;28;87040;-36
2022/07/26 11:52:48;;;;;;;;;;;26.00;51.00;;;;;;5004319;28;87282;-36
2022/07/26 11:55:13;;;;;;;;;;;26.00;50.90;;;;;;5004315;28;87311;-36
2022/07/26 11:57:38;;;;;;;;;;;26.00;50.90;;;;;;5003990;28;87151;-36
2022/07/26 12:00:04;;;;;;;;;;;26.00;50.90;;;;;;5006716;28;87419;-36
2022/07/26 12:02:30;;;;;;;;;;;26.00;50.90;;;;;;5003335;28;88177;-35
2022/07/26 12:05:11;;;;;;;;;;;26.00;50.90;;;;;;5003962;28;88380;-35
2022/07/26 12:07:36;;;;;;;;;;;26.10;51.00;;;;;;5003471;28;88180;-35
2022/07/26 12:10:02;;;;;;;;;;;26.10;50.90;;;;;;5003773;28;87144;-35
2022/07/26 12:12:29;;;;;;;;;;;26.10;50.90;;;;;;5003963;28;87514;-36
2022/07/26 12:14:56;;;;;;;;;;;26.10;50.80;;;;;;5003413;28;87419;-36
2022/07/26 12:17:22;;;;;;;;;;;26.10;50.70;;;;;;5003290;28;87115;-36
2022/07/26 12:19:47;;;;;;;;;;;26.10;50.70;;;;;;5004371;28;87428;-35
2022/07/26 12:22:14;;;;;;;;;;;26.20;50.80;;;;;;5005971;28;88140;-36
2022/07/26 12:24:43;;;;;;;;;;;26.20;50.80;;;;;;5003480;28;87421;-36
2022/07/26 12:27:08;;;;;;;;;;;26.20;50.70;;;;;;5002049;28;90293;-36
2022/07/26 12:29:37;;;;;;;;;;;26.20;50.70;;;;;;5003206;28;87132;-36
2022/07/26 12:32:07;;;;;;;;;;;26.30;50.80;;;;;;5003138;28;87704;-36
2022/07/26 12:34:33;;;;;;;;;;;26.30;50.70;;;;;;5002430;28;89487;-36
2022/07/26 12:37:05;;;;;;;;;;;26.30;50.70;;;;;;5003014;28;87092;-35
2022/07/26 12:39:31;;;;;;;;;;;26.30;50.70;;;;;;5002080;28;87355;-36
2022/07/26 12:41:57;;;;;;;;;;;26.30;50.60;;;;;;5002610;28;88040;-36
2022/07/26 12:44:22;;;;;;;;;;;26.40;50.70;;;;;;5006118;28;86421;-36
2022/07/26 12:46:48;;;;;;;;;;;26.40;50.70;;;;;;5002425;28;88120;-36
2022/07/26 12:49:13;;;;;;;;;;;26.40;50.70;;;;;;5002826;28;87127;-36
2022/07/26 12:51:39;;;;;;;;;;;26.50;50.70;;;;;;5002446;28;88018;-36
2022/07/26 12:54:05;;;;;;;;;;;26.50;50.60;;;;;;5002376;28;87979;-36
2022/07/26 12:56:31;;;;;;;;;;;26.50;50.60;;;;;;5002530;28;87174;-36
2022/07/26 12:58:59;;;;;;;;;;;26.50;50.60;;;;;;5002960;28;87518;-36
2022/07/26 13:01:25;;;;;;;;;;;26.50;50.60;;;;;;5001877;28;89310;-36
2022/07/26 13:03:51;;;;;;;;;;;26.50;50.50;;;;;;5002827;28;87078;-36
2022/07/26 13:06:17;;;;;;;;;;;26.60;50.50;;;;;;5005386;28;87996;-36
2022/07/26 13:08:42;;;;;;;;;;;26.60;50.50;;;;;;5003230;28;86649;-36
2022/07/26 13:11:08;;;;;;;;;;;26.60;50.40;;;;;;5002764;28;87623;-36
2022/07/26 13:13:34;;;;;;;;;;;26.70;50.50;;;;;;5002181;28;88307;-36
2022/07/26 13:15:59;;;;;;;;;;;26.70;50.50;;;;;;5001494;28;88375;-36
2022/07/26 13:18:25;;;;;;;;;;;26.70;50.40;;;;;;5002358;28;88396;-36
2022/07/26 13:20:50;;;;;;;;;;;26.80;50.40;;;;;;5002062;28;88049;-36
2022/07/26 13:23:16;;;;;;;;;;;26.80;50.30;;;;;;5002516;28;87043;-36
2022/07/26 13:25:41;;;;;;;;;;;26.80;50.20;;;;;;5002435;28;87491;-36
2022/07/26 13:28:07;;;;;;;;;;;26.80;50.20;;;;;;5005013;28;87820;-36
2022/07/26 13:30:34;;;;;;;;;;;26.80;50.20;;;;;;5002153;28;88805;-36
2022/07/26 13:33:00;;;;;;;;;;;26.90;50.30;;;;;;5002350;28;87464;-36
2022/07/26 13:35:25;;;;;;;;;;;26.90;50.30;;;;;;5002446;28;87014;-36
2022/07/26 13:37:51;;;;;;;;;;;27.00;50.30;;;;;;5002070;28;87492;-36
2022/07/26 13:40:16;;;;;;;;;;;27.00;50.30;;;;;;5001157;28;89679;-36
2022/07/26 13:42:42;;;;;;;;;;;27.00;50.40;;;;;;5002177;28;87158;-36
2022/07/26 13:45:08;;;;;;;;;;;27.00;50.30;;;;;;5002091;28;87503;-36
2022/07/26 13:47:33;;;;;;;;;;;27.00;50.30;;;;;;5001598;28;87989;-36
2022/07/26 13:49:59;;;;;;;;;;;27.10;50.50;;;;;;5005168;28;87018;-36
2022/07/26 13:52:24;;;;;;;;;;;27.10;50.40;;;;;;5008281;28;88242;-36
2022/07/26 13:54:50;;;;;;;;;;;27.20;50.50;;;;;;5008625;28;87120;-36
2022/07/26 13:57:15;;;;;;;;;;;27.20;50.40;;;;;;5009124;28;87352;-36
2022/07/26 13:59:40;;;;;;;;;;;27.20;50.30;;;;;;5008332;28;88020;-36
2022/07/26 14:02:06;;;;;;;;;;;27.30;50.40;;;;;;5008675;28;87084;-36
2022/07/26 14:04:32;;;;;;;;;;;27.30;50.50;;;;;;5008043;28;88024;-36
2022/07/26 14:06:57;;;;;;;;;;;27.30;50.40;;;;;;5008404;28;87046;-36
2022/07/26 14:09:23;;;;;;;;;;;27.30;50.50;;;;;;5011482;28;87104;-36
2022/07/26 14:11:49;;;;;;;;;;;27.30;50.50;;;;;;5007875;28;89318;-36
2022/07/26 14:14:14;;;;;;;;;;;27.40;50.60;;;;;;5008048;28;87051;-36
2022/07/26 14:16:40;;;;;;;;;;;27.40;50.60;;;;;;5008226;28;89101;-36